Latest Weather Observations for Edenhope

IDV60801

Issued at 6:05 pm EST Sunday 20 April 2014 (issued every 30 minutes, with the page automatically refreshed every 10 minutes)

About weather observations | Map of weather stations | Latest weather observations for VIC | Other Formats
Station Details ID: 079099 Name: EDENHOPE AIRPORT Lat: -37.02 Lon: 141.27 Height: 155.0 m
Data from the previous 72 hours. | See also: Recent months at Edenhope
Date/Time
EST
Temp
°C
App
Temp
°C
Dew
Point
Rel
Hum
%
Delta-T
°C
Wind Press
QNH
hPa
Press
MSL
hPa
Rain
since 9 am
mm
Dir
 
Spd
km/h
Gust
km/h
Spd
kts
Gust
kts
20/06:00pm 17.1 14.4 10.2 64 3.7 W 15 20 8 11 - - 0.0
20/05:30pm 17.9 14.3 9.8 59 4.3 W 19 26 10 14 - - 0.0
20/05:00pm 18.4 14.9 8.7 53 5.1 W 17 28 9 15 - - 0.0
20/04:30pm 19.5 17.1 8.8 50 5.6 WNW 11 24 6 13 - - 0.0
20/04:00pm 19.0 16.1 8.1 49 5.7 WNW 13 19 7 10 - - 0.0
20/03:30pm 19.3 15.5 7.7 47 6.0 WNW 17 26 9 14 - - 0.0
20/03:00pm 19.5 15.3 7.3 45 6.2 WNW 19 26 10 14 - - 0.0
20/02:30pm 20.1 17.3 6.8 42 6.8 WNW 11 17 6 9 - - 0.0
20/02:00pm 19.5 15.0 6.3 42 6.6 NW 19 28 10 15 - - 0.0
20/01:30pm 19.6 14.9 5.3 39 7.0 WNW 19 24 10 13 - - 0.0
20/01:00pm 19.6 14.7 5.3 39 7.0 WNW 20 32 11 17 - - 0.0
20/12:30pm 18.2 13.4 4.7 41 6.5 NW 19 32 10 17 - - 0.0
20/12:00pm 18.6 13.6 4.8 40 6.7 NW 20 28 11 15 - - 0.0
20/11:30am 17.2 12.7 4.2 42 6.2 NW 17 26 9 14 - - 0.0
20/11:00am 17.2 12.2 4.5 43 6.1 NW 20 28 11 15 - - 0.0
20/10:30am 17.0 12.2 4.7 44 5.9 NW 19 28 10 15 - - 0.0
20/10:00am 15.7 11.5 5.6 51 4.9 NW 17 22 9 12 - - 0.0
20/09:30am 14.4 11.0 5.7 56 4.2 NNW 13 20 7 11 - - 0.0
20/09:00am 13.6 11.0 6.0 60 3.6 N 9 13 5 7 - - 0.0
20/08:30am 12.7 10.7 6.1 64 3.1 N 6 7 3 4 - - 0.0
20/08:00am 11.8 9.1 5.7 66 2.9 N 9 11 5 6 - - 0.0
20/07:30am 11.2 8.9 5.7 69 2.6 N 7 11 4 6 - - 0.0
20/07:00am 11.1 7.7 5.8 70 2.5 N 13 17 7 9 - - 0.0
20/06:30am 10.9 8.6 5.9 71 2.3 N 7 9 4 5 - - 0.0
20/06:00am 10.5 8.4 5.9 73 2.1 N 6 7 3 4 - - 0.0
20/05:30am 10.9 8.9 6.1 72 2.3 N 6 6 3 3 - - 0.0
20/05:00am 11.2 9.2 6.3 72 2.3 NNW 6 7 3 4 - - 0.0
20/04:30am 10.9 10.2 6.8 76 2.0 CALM 0 0 0 0 - - 0.0
20/04:00am 10.9 9.8 7.0 77 1.9 N 2 4 1 2 - - 0.0
20/03:30am 11.1 10.5 7.2 77 1.9 CALM 0 0 0 0 - - 0.0
20/03:00am 11.3 10.6 7.0 75 2.1 CALM 0 0 0 0 - - 0.0
20/02:30am 11.3 10.6 7.0 75 2.1 CALM 0 0 0 0 - - 0.0
20/02:00am 11.4 9.6 7.3 76 2.0 NNE 6 7 3 4 - - 0.0
20/01:30am 11.5 9.7 7.0 74 2.2 NNE 6 7 3 4 - - 0.0
20/01:00am 11.8 10.0 7.3 74 2.2 NE 6 7 3 4 - - 0.0
20/12:30am 11.6 10.2 7.3 75 2.1 NNE 4 6 2 3 - - 0.0
20/12:00am 11.6 10.9 7.1 74 2.2 NNE 0 0 0 0 - - 0.0
 
Date/Time
EST
Temp
°C
App
Temp
°C
Dew
Point
Rel
Hum
%
Delta-T
°C
Wind Press
QNH
hPa
Press
MSL
hPa
Rain
since 9 am
mm
Dir
 
Spd
km/h
Gust
km/h
Spd
kts
Gust
kts
19/11:30pm 11.9 10.9 7.2 73 2.3 ENE 2 4 1 2 - - 0.0
19/11:00pm 11.9 10.5 7.2 73 2.3 E 4 6 2 3 - - 0.0
19/10:30pm 11.9 11.2 7.0 72 2.4 CALM 0 0 0 0 - - 0.0
19/10:00pm 12.1 11.4 7.0 71 2.5 CALM 0 0 0 0 - - 0.0
19/09:30pm 12.2 11.4 6.7 69 2.6 CALM 0 0 0 0 - - 0.0
19/09:00pm 12.1 11.3 6.4 68 2.7 CALM 0 0 0 0 - - 0.0
19/08:30pm 12.6 11.8 6.4 66 3.0 CALM 0 0 0 0 - - 0.0
19/08:00pm 12.8 11.2 6.4 65 3.1 SSE 4 4 2 2 - - 0.0
19/07:30pm 13.1 11.5 6.2 63 3.3 SE 4 7 2 4 - - 0.0
19/07:00pm 13.3 11.6 5.9 61 3.5 S 4 6 2 3 - - 0.0
19/06:30pm 13.7 11.6 5.6 58 3.8 SSE 6 7 3 4 - - 0.0
19/06:00pm 14.2 11.9 4.8 53 4.4 S 6 9 3 5 - - 0.0
19/05:30pm 14.6 11.9 3.7 48 5.0 W 7 11 4 6 - - 0.0
19/05:00pm 14.9 12.3 4.3 49 4.9 WSW 7 11 4 6 - - 0.0
19/04:30pm 15.1 11.3 3.9 47 5.2 W 13 19 7 10 - - 0.0
19/04:00pm 15.1 12.7 4.2 48 5.1 WSW 6 11 3 6 - - 0.0
19/03:30pm 14.8 12.5 4.8 51 4.7 SSW 6 11 3 6 - - 0.0
19/03:00pm 15.1 12.7 5.3 52 4.7 S 7 15 4 8 - - 0.0
19/02:30pm 15.2 12.0 4.9 50 4.9 SW 11 20 6 11 - - 0.0
19/02:00pm 16.3 13.0 4.4 45 5.6 WNW 11 20 6 11 - - 0.0
19/01:30pm 14.8 12.3 4.5 50 4.8 WSW 7 13 4 7 - - 0.0
19/01:00pm 14.1 10.5 5.2 55 4.2 WSW 13 22 7 12 - - 0.0
19/12:30pm 14.5 11.6 4.8 52 4.6 SW 9 15 5 8 - - 0.0
19/12:00pm 14.7 11.4 4.7 51 4.7 WNW 11 19 6 10 - - 0.0
19/11:30am 14.5 12.8 6.1 57 4.1 WSW 4 11 2 6 - - 0.0
19/11:00am 13.3 12.1 6.6 64 3.2 SSW 2 6 1 3 - - 0.0
19/10:30am 13.0 10.7 7.5 69 2.7 WSW 9 15 5 8 - - 0.0
19/10:00am 12.4 11.4 7.5 72 2.4 SSE 2 4 1 2 - - 0.0
19/09:30am 11.2 9.9 7.7 79 1.7 E 4 6 2 3 - - 0.0
19/09:00am 10.2 9.6 7.6 84 1.3 CALM 0 2 0 1 - - 0.2
19/08:30am 9.5 8.9 7.4 87 1.0 CALM 0 4 0 2 - - 0.2
19/08:00am 8.9 8.3 7.2 89 0.8 CALM 0 0 0 0 - - 0.2
19/07:30am 8.4 7.6 6.7 89 0.8 CALM 0 0 0 0 - - 0.2
19/07:00am 8.2 7.4 6.5 89 0.8 CALM 0 0 0 0 - - 0.2
19/06:30am 8.1 7.3 6.7 91 0.7 CALM 0 0 0 0 - - 0.2
19/06:00am 7.7 6.9 6.5 92 0.6 CALM 0 0 0 0 - - 0.2
19/05:30am 7.4 6.6 6.3 93 0.5 CALM 0 0 0 0 - - 0.2
19/05:00am 7.1 6.2 6.0 93 0.5 CALM 0 4 0 2 - - 0.2
19/04:30am 6.7 5.7 5.7 93 0.4 CALM 0 0 0 0 - - 0.2
19/04:00am 6.8 5.8 5.7 93 0.5 CALM 0 2 0 1 - - 0.2
19/03:30am 6.8 5.8 5.7 93 0.5 CALM 0 0 0 0 - - 0.2
19/03:00am 6.2 5.1 5.2 93 0.4 CALM 0 0 0 0 - - 0.2
19/02:30am 5.7 4.5 4.5 92 0.5 CALM 0 0 0 0 - - 0.2
19/02:00am 5.7 4.4 4.3 91 0.6 CALM 0 0 0 0 - - 0.2
19/01:30am 6.5 5.4 5.0 90 0.7 CALM 0 0 0 0 - - 0.2
19/01:00am 7.0 5.9 5.2 88 0.8 CALM 0 0 0 0 - - 0.2
19/12:30am 7.4 6.4 5.4 87 0.9 CALM 0 0 0 0 - - 0.2
19/12:00am 7.5 6.5 5.5 87 0.9 CALM 0 0 0 0 - - 0.2
 
Date/Time
EST
Temp
°C
App
Temp
°C
Dew
Point
Rel
Hum
%
Delta-T
°C
Wind Press
QNH
hPa
Press
MSL
hPa
Rain
since 9 am
mm
Dir
 
Spd
km/h
Gust
km/h
Spd
kts
Gust
kts
18/11:30pm 7.5 6.5 5.6 88 0.9 CALM 0 0 0 0 - - 0.2
18/11:00pm 7.3 6.2 5.1 86 1.0 CALM 0 0 0 0 - - 0.2
18/10:30pm 7.7 6.6 5.3 85 1.1 CALM 0 0 0 0 - - 0.2
18/10:00pm 8.2 7.1 5.3 82 1.3 CALM 0 0 0 0 - - 0.2
18/09:30pm 8.8 7.2 4.6 75 1.9 SW 2 4 1 2 - - 0.2
18/09:00pm 10.5 8.4 5.9 73 2.1 S 6 7 3 4 - - 0.2
18/08:30pm 10.9 8.6 5.9 71 2.3 S 7 11 4 6 - - 0.2
18/08:00pm 11.7 9.5 6.2 69 2.6 SSW 7 11 4 6 - - 0.2
18/07:30pm 12.1 9.8 5.9 66 2.9 S 7 9 4 5 - - 0.2
18/07:00pm 13.0 9.6 5.7 61 3.5 S 13 19 7 10 - - 0.2
18/06:30pm 13.0 10.3 3.9 54 4.1 S 7 11 4 6 - - 0.2
18/06:00pm 13.8 10.9 4.7 54 4.2 SSW 9 17 5 9 - - 0.2
18/05:30pm 14.7 10.1 5.5 54 4.4 SW 19 32 10 17 - - 0.2
18/05:00pm 15.3 10.6 5.0 50 4.9 SSW 19 26 10 14 - - 0.2
18/04:30pm 16.1 11.6 6.0 51 4.9 SW 19 30 10 16 - - 0.2
18/04:00pm 16.4 11.9 6.0 50 5.1 S 19 32 10 17 - - 0.2
18/03:30pm 17.5 13.3 5.8 46 5.7 SW 17 22 9 12 - - 0.2
18/03:00pm 17.3 12.4 7.1 51 5.1 SSW 22 35 12 19 - - 0.2
18/02:30pm 19.4 14.9 4.4 37 7.3 S 17 30 9 16 - - 0.2
18/02:00pm 17.3 12.0 4.9 44 6.0 SSW 22 37 12 20 - - 0.2
18/01:30pm 16.8 12.0 4.8 45 5.7 SSW 19 33 10 18 - - 0.2
18/01:00pm 17.8 12.9 5.1 43 6.2 SW 20 30 11 16 - - 0.0
18/12:30pm 17.0 12.3 5.3 46 5.7 S 19 28 10 15 - - 0.0
18/12:00pm 17.3 12.3 6.5 49 5.4 SW 22 37 12 20 - - 0.0
18/11:30am 17.1 13.4 8.0 55 4.7 SSW 17 30 9 16 - - 0.0
18/11:00am 16.2 11.9 7.9 58 4.2 SSW 20 30 11 16 - - 0.0
18/10:30am 15.1 11.3 9.0 67 3.1 SW 19 35 10 19 - - 0.0
18/10:00am 14.3 11.8 9.7 74 2.4 SSW 13 26 7 14 - - 0.0
18/09:30am 14.1 11.3 11.3 83 1.5 SSW 17 28 9 15 - - 0.0
18/09:00am 13.3 10.5 11.5 89 1.0 SSW 17 26 9 14 - - 0.6
18/08:30am 13.6 11.9 12.3 92 0.7 SSW 13 24 7 13 - - 0.6
18/08:00am 13.5 11.0 12.4 93 0.6 SSW 17 26 9 14 - - 0.6
18/07:30am 14.2 11.4 13.1 93 0.6 WSW 20 26 11 14 - - 0.4
18/07:00am 13.6 12.5 12.0 90 0.9 NW 9 13 5 7 - - 0.0
18/06:30am 13.4 12.2 11.5 88 1.0 NW 9 13 5 7 - - 0.0
18/06:00am 13.6 11.7 10.6 82 1.6 WNW 11 15 6 8 - - 0.0
18/05:30am 13.8 11.8 10.0 78 2.0 NW 11 15 6 8 - - 0.0
18/05:00am 14.5 12.4 9.9 74 2.4 WNW 11 19 6 10 - - 0.0
18/04:30am 14.8 12.0 10.0 73 2.5 NW 15 22 8 12 - - 0.0
18/04:00am 14.0 12.6 9.4 74 2.4 NW 7 13 4 7 - - 0.0
18/03:30am 14.1 11.2 9.5 74 2.4 N 15 20 8 11 - - 0.0
18/03:00am 13.8 12.3 9.0 73 2.5 NNW 7 11 4 6 - - 0.0
18/02:30am 13.3 11.9 9.0 75 2.2 NNW 6 9 3 5 - - 0.0
18/02:00am 12.6 11.3 9.1 79 1.8 N 6 7 3 4 - - 0.0
18/01:30am 12.2 10.6 8.9 80 1.7 N 7 9 4 5 - - 0.0
18/01:00am 12.6 11.0 8.9 78 1.9 N 7 9 4 5 - - 0.0
18/12:30am 12.6 11.3 9.2 80 1.7 N 6 11 3 6 - - 0.0
18/12:00am 12.0 10.7 9.2 83 1.4 N 6 7 3 4 - - 0.0
 
Date/Time
EST
Temp
°C
App
Temp
°C
Dew
Point
Rel
Hum
%
Delta-T
°C
Wind Press
QNH
hPa
Press
MSL
hPa
Rain
since 9 am
mm
Dir
 
Spd
km/h
Gust
km/h
Spd
kts
Gust
kts
17/11:30pm 10.1 8.3 7.2 82 1.4 NNE 6 7 3 4 - - 0.0
17/11:00pm 10.4 8.7 7.5 82 1.4 N 6 6 3 3 - - 0.0
17/10:30pm 10.2 9.2 7.3 82 1.4 N 2 4 1 2 - - 0.0
17/10:00pm 10.0 8.6 7.1 82 1.4 N 4 6 2 3 - - 0.0
17/09:30pm 10.5 9.9 7.2 80 1.6 CALM 0 0 0 0 - - 0.0
17/09:00pm 11.5 10.8 7.0 74 2.2 CALM 0 2 0 1 - - 0.0
17/08:30pm 12.6 11.6 7.5 71 2.5 NNW 2 4 1 2 - - 0.0
17/08:00pm 13.4 12.8 7.4 67 3.0 CALM 0 0 0 0 - - 0.0
17/07:30pm 14.7 13.7 7.5 62 3.6 WNW 2 4 1 2 - - 0.0
17/07:00pm 14.8 12.8 7.1 60 3.8 W 7 9 4 5 - - 0.0
17/06:30pm 16.0 14.0 7.0 55 4.5 W 7 11 4 6 - - 0.0

Other Formats:

Comma delimited format used in spreadsheet applications
http://www.bom.gov.au/fwo/IDV60801/IDV60801.95832.axf

JavaScript Object Notation format (JSON) in row-major order
http://www.bom.gov.au/fwo/IDV60801/IDV60801.95832.json